sensor_id;sensor_type;location;lat;lon;timestamp;P1;durP1;ratioP1;P2;durP2;ratioP2
54005;SDS011;39919;38.160;-122.260;2023-02-04T00:01:39;0.50;;;0.10;;
54005;SDS011;39919;38.160;-122.260;2023-02-04T00:04:08;0.38;;;0.10;;
54005;SDS011;39919;38.160;-122.260;2023-02-04T00:06:39;0.40;;;0.00;;
54005;SDS011;39919;38.160;-122.260;2023-02-04T00:09:13;0.47;;;0.10;;
54005;SDS011;39919;38.160;-122.260;2023-02-04T00:11:42;0.25;;;0.10;;
54005;SDS011;39919;38.160;-122.260;2023-02-04T00:14:12;0.80;;;0.10;;
54005;SDS011;39919;38.160;-122.260;2023-02-04T00:16:41;0.15;;;0.10;;
54005;SDS011;39919;38.160;-122.260;2023-02-04T00:19:10;0.50;;;0.10;;
54005;SDS011;39919;38.160;-122.260;2023-02-04T00:21:41;0.60;;;0.10;;
54005;SDS011;39919;38.160;-122.260;2023-02-04T00:24:10;0.52;;;0.10;;
54005;SDS011;39919;38.160;-122.260;2023-02-04T00:26:39;0.65;;;0.10;;
54005;SDS011;39919;38.160;-122.260;2023-02-04T00:29:10;1.20;;;0.10;;
54005;SDS011;39919;38.160;-122.260;2023-02-04T00:31:39;1.50;;;0.20;;
54005;SDS011;39919;38.160;-122.260;2023-02-04T00:34:11;0.13;;;0.10;;
54005;SDS011;39919;38.160;-122.260;2023-02-04T00:36:44;0.75;;;0.47;;
54005;SDS011;39919;38.160;-122.260;2023-02-04T00:39:13;0.73;;;0.20;;
54005;SDS011;39919;38.160;-122.260;2023-02-04T00:41:43;2.40;;;0.10;;
54005;SDS011;39919;38.160;-122.260;2023-02-04T00:44:12;2.28;;;0.20;;
54005;SDS011;39919;38.160;-122.260;2023-02-04T00:46:41;1.27;;;0.20;;
54005;SDS011;39919;38.160;-122.260;2023-02-04T00:49:10;1.95;;;0.13;;
54005;SDS011;39919;38.160;-122.260;2023-02-04T00:51:39;0.30;;;0.15;;
54005;SDS011;39919;38.160;-122.260;2023-02-04T00:54:13;6.47;;;0.20;;
54005;SDS011;39919;38.160;-122.260;2023-02-04T00:56:42;0.98;;;0.40;;
54005;SDS011;39919;38.160;-122.260;2023-02-04T00:59:12;2.67;;;0.20;;
54005;SDS011;39919;38.160;-122.260;2023-02-04T01:01:41;1.80;;;0.20;;
54005;SDS011;39919;38.160;-122.260;2023-02-04T01:04:10;1.65;;;0.22;;
54005;SDS011;39919;38.160;-122.260;2023-02-04T01:06:39;2.67;;;0.43;;
54005;SDS011;39919;38.160;-122.260;2023-02-04T01:09:09;5.63;;;0.25;;
54005;SDS011;39919;38.160;-122.260;2023-02-04T01:11:41;2.08;;;0.20;;
54005;SDS011;39919;38.160;-122.260;2023-02-04T01:14:11;0.30;;;0.30;;
54005;SDS011;39919;38.160;-122.260;2023-02-04T01:16:40;3.50;;;0.40;;
54005;SDS011;39919;38.160;-122.260;2023-02-04T01:19:10;4.13;;;3.30;;
54005;SDS011;39919;38.160;-122.260;2023-02-04T01:21:39;6.38;;;5.75;;
54005;SDS011;39919;38.160;-122.260;2023-02-04T01:24:08;20.02;;;9.20;;
54005;SDS011;39919;38.160;-122.260;2023-02-04T01:26:42;1.55;;;0.30;;
54005;SDS011;39919;38.160;-122.260;2023-02-04T01:29:11;2.17;;;0.30;;
54005;SDS011;39919;38.160;-122.260;2023-02-04T01:31:40;0.93;;;0.30;;
54005;SDS011;39919;38.160;-122.260;2023-02-04T01:34:10;2.97;;;0.30;;
54005;SDS011;39919;38.160;-122.260;2023-02-04T01:36:39;0.75;;;0.28;;
54005;SDS011;39919;38.160;-122.260;2023-02-04T01:39:08;3.08;;;0.85;;
54005;SDS011;39919;38.160;-122.260;2023-02-04T01:41:40;1.48;;;0.40;;
54005;SDS011;39919;38.160;-122.260;2023-02-04T01:44:10;1.95;;;0.60;;
54005;SDS011;39919;38.160;-122.260;2023-02-04T01:46:39;1.08;;;0.32;;
54005;SDS011;39919;38.160;-122.260;2023-02-04T01:49:10;2.92;;;0.40;;
54005;SDS011;39919;38.160;-122.260;2023-02-04T01:51:40;3.67;;;0.65;;
54005;SDS011;39919;38.160;-122.260;2023-02-04T01:54:09;2.85;;;0.60;;
54005;SDS011;39919;38.160;-122.260;2023-02-04T01:56:44;1.70;;;0.80;;
54005;SDS011;39919;38.160;-122.260;2023-02-04T01:59:16;3.78;;;0.93;;
54005;SDS011;39919;38.160;-122.260;2023-02-04T02:01:46;1.58;;;0.43;;
54005;SDS011;39919;38.160;-122.260;2023-02-04T02:04:17;0.90;;;0.50;;
54005;SDS011;39919;38.160;-122.260;2023-02-04T02:06:48;2.30;;;0.63;;
54005;SDS011;39919;38.160;-122.260;2023-02-04T02:09:20;2.53;;;0.70;;
54005;SDS011;39919;38.160;-122.260;2023-02-04T02:11:51;2.33;;;0.60;;
54005;SDS011;39919;38.160;-122.260;2023-02-04T02:14:20;1.23;;;0.50;;
54005;SDS011;39919;38.160;-122.260;2023-02-04T02:16:50;5.40;;;0.50;;
54005;SDS011;39919;38.160;-122.260;2023-02-04T02:19:21;1.85;;;1.02;;
54005;SDS011;39919;38.160;-122.260;2023-02-04T02:21:55;3.83;;;2.55;;
54005;SDS011;39919;38.160;-122.260;2023-02-04T02:24:30;2.75;;;1.25;;
54005;SDS011;39919;38.160;-122.260;2023-02-04T02:27:01;1.85;;;0.93;;
54005;SDS011;39919;38.160;-122.260;2023-02-04T02:29:34;1.65;;;0.70;;
54005;SDS011;39919;38.160;-122.260;2023-02-04T02:32:07;1.63;;;0.55;;
54005;SDS011;39919;38.160;-122.260;2023-02-04T02:34:37;1.67;;;0.70;;
54005;SDS011;39919;38.160;-122.260;2023-02-04T02:37:08;3.33;;;2.55;;
54005;SDS011;39919;38.160;-122.260;2023-02-04T02:39:39;2.28;;;1.25;;
54005;SDS011;39919;38.160;-122.260;2023-02-04T02:42:25;3.40;;;1.13;;
54005;SDS011;39919;38.160;-122.260;2023-02-04T02:44:54;1.67;;;0.60;;
54005;SDS011;39919;38.160;-122.260;2023-02-04T02:47:24;0.57;;;0.50;;
54005;SDS011;39919;38.160;-122.260;2023-02-04T02:49:56;2.67;;;0.50;;
54005;SDS011;39919;38.160;-122.260;2023-02-04T02:52:25;4.47;;;2.20;;
54005;SDS011;39919;38.160;-122.260;2023-02-04T02:54:56;2.35;;;0.98;;
54005;SDS011;39919;38.160;-122.260;2023-02-04T02:57:25;4.15;;;2.65;;
54005;SDS011;39919;38.160;-122.260;2023-02-04T02:59:54;6.03;;;1.85;;
54005;SDS011;39919;38.160;-122.260;2023-02-04T03:02:24;1.90;;;0.60;;
54005;SDS011;39919;38.160;-122.260;2023-02-04T03:04:56;1.85;;;0.68;;
54005;SDS011;39919;38.160;-122.260;2023-02-04T03:07:27;0.85;;;0.60;;
54005;SDS011;39919;38.160;-122.260;2023-02-04T03:09:58;1.40;;;0.50;;
54005;SDS011;39919;38.160;-122.260;2023-02-04T03:12:28;1.85;;;0.77;;
54005;SDS011;39919;38.160;-122.260;2023-02-04T03:14:57;1.17;;;0.60;;
54005;SDS011;39919;38.160;-122.260;2023-02-04T03:17:26;0.90;;;0.70;;
54005;SDS011;39919;38.160;-122.260;2023-02-04T03:19:56;1.75;;;0.90;;
54005;SDS011;39919;38.160;-122.260;2023-02-04T03:22:27;1.60;;;1.42;;
54005;SDS011;39919;38.160;-122.260;2023-02-04T03:24:59;2.65;;;1.20;;
54005;SDS011;39919;38.160;-122.260;2023-02-04T03:27:29;1.83;;;0.75;;
54005;SDS011;39919;38.160;-122.260;2023-02-04T03:29:58;1.73;;;0.80;;
54005;SDS011;39919;38.160;-122.260;2023-02-04T03:32:27;1.60;;;0.82;;
54005;SDS011;39919;38.160;-122.260;2023-02-04T03:34:56;1.65;;;0.55;;
54005;SDS011;39919;38.160;-122.260;2023-02-04T03:37:26;0.30;;;0.30;;
54005;SDS011;39919;38.160;-122.260;2023-02-04T03:39:55;5.60;;;0.75;;
54005;SDS011;39919;38.160;-122.260;2023-02-04T03:42:26;1.10;;;0.50;;
54005;SDS011;39919;38.160;-122.260;2023-02-04T03:44:55;2.78;;;0.63;;
54005;SDS011;39919;38.160;-122.260;2023-02-04T03:47:27;0.60;;;0.30;;
54005;SDS011;39919;38.160;-122.260;2023-02-04T03:49:56;1.65;;;0.60;;
54005;SDS011;39919;38.160;-122.260;2023-02-04T03:52:25;1.25;;;0.70;;
54005;SDS011;39919;38.160;-122.260;2023-02-04T03:54:54;2.08;;;0.73;;
54005;SDS011;39919;38.160;-122.260;2023-02-04T03:57:25;1.20;;;0.63;;
54005;SDS011;39919;38.160;-122.260;2023-02-04T03:59:55;1.73;;;0.60;;
54005;SDS011;39919;38.160;-122.260;2023-02-04T04:02:24;1.73;;;0.40;;
54005;SDS011;39919;38.160;-122.260;2023-02-04T04:04:53;1.52;;;0.75;;
54005;SDS011;39919;38.160;-122.260;2023-02-04T04:07:23;1.65;;;0.90;;
54005;SDS011;39919;38.160;-122.260;2023-02-04T04:09:53;1.17;;;0.40;;
54005;SDS011;39919;38.160;-122.260;2023-02-04T04:12:22;1.65;;;0.40;;
54005;SDS011;39919;38.160;-122.260;2023-02-04T04:15:02;2.80;;;0.52;;
54005;SDS011;39919;38.160;-122.260;2023-02-04T04:17:31;3.17;;;0.52;;
54005;SDS011;39919;38.160;-122.260;2023-02-04T04:20:01;1.50;;;0.50;;
54005;SDS011;39919;38.160;-122.260;2023-02-04T04:22:30;0.63;;;0.30;;
54005;SDS011;39919;38.160;-122.260;2023-02-04T04:25:00;2.75;;;0.40;;
54005;SDS011;39919;38.160;-122.260;2023-02-04T04:27:29;0.65;;;0.30;;
54005;SDS011;39919;38.160;-122.260;2023-02-04T04:29:59;0.93;;;0.30;;
54005;SDS011;39919;38.160;-122.260;2023-02-04T04:32:30;0.52;;;0.30;;
54005;SDS011;39919;38.160;-122.260;2023-02-04T04:35:04;1.33;;;0.22;;
54005;SDS011;39919;38.160;-122.260;2023-02-04T04:37:34;0.65;;;0.20;;
54005;SDS011;39919;38.160;-122.260;2023-02-04T04:40:03;0.60;;;0.20;;
54005;SDS011;39919;38.160;-122.260;2023-02-04T04:42:33;0.40;;;0.30;;
54005;SDS011;39919;38.160;-122.260;2023-02-04T04:45:04;1.15;;;0.28;;
54005;SDS011;39919;38.160;-122.260;2023-02-04T04:47:38;0.52;;;0.30;;
54005;SDS011;39919;38.160;-122.260;2023-02-04T04:50:09;0.82;;;0.38;;
54005;SDS011;39919;38.160;-122.260;2023-02-04T04:52:38;2.72;;;0.50;;
54005;SDS011;39919;38.160;-122.260;2023-02-04T04:55:08;1.20;;;0.73;;
54005;SDS011;39919;38.160;-122.260;2023-02-04T04:57:38;2.42;;;1.20;;
54005;SDS011;39919;38.160;-122.260;2023-02-04T05:00:10;3.63;;;1.65;;
54005;SDS011;39919;38.160;-122.260;2023-02-04T05:02:43;2.58;;;1.25;;
54005;SDS011;39919;38.160;-122.260;2023-02-04T05:05:12;2.92;;;0.90;;
54005;SDS011;39919;38.160;-122.260;2023-02-04T05:07:44;1.60;;;1.50;;
54005;SDS011;39919;38.160;-122.260;2023-02-04T05:10:13;4.18;;;2.75;;
54005;SDS011;39919;38.160;-122.260;2023-02-04T05:12:42;2.15;;;1.92;;
54005;SDS011;39919;38.160;-122.260;2023-02-04T05:15:13;2.78;;;1.80;;
54005;SDS011;39919;38.160;-122.260;2023-02-04T05:17:42;2.13;;;2.00;;
54005;SDS011;39919;38.160;-122.260;2023-02-04T05:20:14;3.75;;;3.45;;
54005;SDS011;39919;38.160;-122.260;2023-02-04T05:22:44;3.83;;;2.65;;
54005;SDS011;39919;38.160;-122.260;2023-02-04T05:25:13;1.67;;;1.58;;
54005;SDS011;39919;38.160;-122.260;2023-02-04T05:27:43;3.72;;;2.25;;
54005;SDS011;39919;38.160;-122.260;2023-02-04T05:30:17;2.15;;;1.95;;
54005;SDS011;39919;38.160;-122.260;2023-02-04T05:32:47;2.53;;;2.15;;
54005;SDS011;39919;38.160;-122.260;2023-02-04T05:35:16;5.80;;;3.35;;
54005;SDS011;39919;38.160;-122.260;2023-02-04T05:37:46;2.75;;;2.55;;
54005;SDS011;39919;38.160;-122.260;2023-02-04T05:40:16;4.45;;;2.72;;
54005;SDS011;39919;38.160;-122.260;2023-02-04T05:42:45;4.63;;;3.05;;
54005;SDS011;39919;38.160;-122.260;2023-02-04T05:45:17;4.90;;;3.08;;
54005;SDS011;39919;38.160;-122.260;2023-02-04T05:47:46;2.70;;;2.47;;
54005;SDS011;39919;38.160;-122.260;2023-02-04T05:50:16;1.70;;;1.60;;
54005;SDS011;39919;38.160;-122.260;2023-02-04T05:52:45;1.27;;;1.27;;
54005;SDS011;39919;38.160;-122.260;2023-02-04T05:55:14;1.90;;;1.70;;
54005;SDS011;39919;38.160;-122.260;2023-02-04T05:57:44;2.58;;;2.22;;
54005;SDS011;39919;38.160;-122.260;2023-02-04T06:00:13;2.58;;;1.83;;
54005;SDS011;39919;38.160;-122.260;2023-02-04T06:02:44;1.90;;;1.50;;
54005;SDS011;39919;38.160;-122.260;2023-02-04T06:05:14;4.82;;;2.13;;
54005;SDS011;39919;38.160;-122.260;2023-02-04T06:07:43;2.60;;;1.52;;
54005;SDS011;39919;38.160;-122.260;2023-02-04T06:10:12;2.17;;;1.50;;
54005;SDS011;39919;38.160;-122.260;2023-02-04T06:12:42;3.15;;;1.67;;
54005;SDS011;39919;38.160;-122.260;2023-02-04T06:15:11;1.48;;;1.30;;
54005;SDS011;39919;38.160;-122.260;2023-02-04T06:17:42;2.25;;;1.58;;
54005;SDS011;39919;38.160;-122.260;2023-02-04T06:20:14;2.88;;;1.48;;
54005;SDS011;39919;38.160;-122.260;2023-02-04T06:22:44;2.30;;;1.83;;
54005;SDS011;39919;38.160;-122.260;2023-02-04T06:25:19;1.90;;;1.65;;
54005;SDS011;39919;38.160;-122.260;2023-02-04T06:27:48;2.42;;;1.60;;
54005;SDS011;39919;38.160;-122.260;2023-02-04T06:30:17;1.98;;;1.88;;
54005;SDS011;39919;38.160;-122.260;2023-02-04T06:32:51;3.33;;;2.00;;
54005;SDS011;39919;38.160;-122.260;2023-02-04T06:35:20;3.70;;;2.30;;
54005;SDS011;39919;38.160;-122.260;2023-02-04T06:37:49;2.95;;;1.75;;
54005;SDS011;39919;38.160;-122.260;2023-02-04T06:40:19;2.38;;;1.60;;
54005;SDS011;39919;38.160;-122.260;2023-02-04T06:42:48;2.88;;;1.75;;
54005;SDS011;39919;38.160;-122.260;2023-02-04T06:45:17;1.88;;;1.05;;
54005;SDS011;39919;38.160;-122.260;2023-02-04T06:47:48;1.58;;;0.77;;
54005;SDS011;39919;38.160;-122.260;2023-02-04T06:50:17;1.38;;;1.05;;
54005;SDS011;39919;38.160;-122.260;2023-02-04T06:52:47;1.83;;;1.58;;
54005;SDS011;39919;38.160;-122.260;2023-02-04T06:55:16;4.57;;;3.25;;
54005;SDS011;39919;38.160;-122.260;2023-02-04T06:57:45;4.72;;;3.40;;
54005;SDS011;39919;38.160;-122.260;2023-02-04T07:00:29;3.78;;;3.40;;
54005;SDS011;39919;38.160;-122.260;2023-02-04T07:03:00;6.85;;;3.50;;
54005;SDS011;39919;38.160;-122.260;2023-02-04T07:05:33;3.80;;;2.70;;
54005;SDS011;39919;38.160;-122.260;2023-02-04T07:08:05;3.95;;;3.10;;
54005;SDS011;39919;38.160;-122.260;2023-02-04T07:10:34;5.53;;;4.03;;
54005;SDS011;39919;38.160;-122.260;2023-02-04T07:13:04;6.63;;;3.50;;
54005;SDS011;39919;38.160;-122.260;2023-02-04T07:15:34;5.72;;;4.40;;
54005;SDS011;39919;38.160;-122.260;2023-02-04T07:18:05;7.13;;;4.88;;
54005;SDS011;39919;38.160;-122.260;2023-02-04T07:20:34;6.93;;;4.40;;
54005;SDS011;39919;38.160;-122.260;2023-02-04T07:23:03;6.82;;;4.30;;
54005;SDS011;39919;38.160;-122.260;2023-02-04T07:25:33;10.65;;;4.10;;
54005;SDS011;39919;38.160;-122.260;2023-02-04T07:28:05;4.43;;;3.55;;
54005;SDS011;39919;38.160;-122.260;2023-02-04T07:30:34;5.60;;;3.17;;
54005;SDS011;39919;38.160;-122.260;2023-02-04T07:33:05;5.68;;;3.15;;
54005;SDS011;39919;38.160;-122.260;2023-02-04T07:35:34;2.15;;;1.95;;
54005;SDS011;39919;38.160;-122.260;2023-02-04T07:38:04;2.17;;;1.73;;
54005;SDS011;39919;38.160;-122.260;2023-02-04T07:40:36;3.80;;;2.15;;
54005;SDS011;39919;38.160;-122.260;2023-02-04T07:43:06;2.75;;;2.45;;
54005;SDS011;39919;38.160;-122.260;2023-02-04T07:45:35;2.08;;;1.98;;
54005;SDS011;39919;38.160;-122.260;2023-02-04T07:48:06;2.95;;;2.00;;
54005;SDS011;39919;38.160;-122.260;2023-02-04T07:50:36;2.78;;;2.50;;
54005;SDS011;39919;38.160;-122.260;2023-02-04T07:53:05;8.57;;;5.30;;
54005;SDS011;39919;38.160;-122.260;2023-02-04T07:55:35;9.38;;;4.70;;
54005;SDS011;39919;38.160;-122.260;2023-02-04T07:58:04;7.60;;;4.18;;
54005;SDS011;39919;38.160;-122.260;2023-02-04T08:00:34;9.38;;;4.43;;
54005;SDS011;39919;38.160;-122.260;2023-02-04T08:03:03;6.20;;;3.65;;
54005;SDS011;39919;38.160;-122.260;2023-02-04T08:05:34;3.97;;;2.88;;
54005;SDS011;39919;38.160;-122.260;2023-02-04T08:08:03;3.63;;;2.42;;
54005;SDS011;39919;38.160;-122.260;2023-02-04T08:10:33;5.30;;;3.58;;
54005;SDS011;39919;38.160;-122.260;2023-02-04T08:13:02;4.60;;;3.30;;
54005;SDS011;39919;38.160;-122.260;2023-02-04T08:15:31;6.93;;;3.30;;
54005;SDS011;39919;38.160;-122.260;2023-02-04T08:18:00;5.05;;;3.92;;
54005;SDS011;39919;38.160;-122.260;2023-02-04T08:20:31;4.80;;;3.35;;
54005;SDS011;39919;38.160;-122.260;2023-02-04T08:23:00;7.03;;;4.05;;
54005;SDS011;39919;38.160;-122.260;2023-02-04T08:25:30;7.72;;;3.70;;
54005;SDS011;39919;38.160;-122.260;2023-02-04T08:27:59;4.10;;;3.60;;
54005;SDS011;39919;38.160;-122.260;2023-02-04T08:30:28;7.32;;;4.63;;
54005;SDS011;39919;38.160;-122.260;2023-02-04T08:32:58;5.35;;;4.03;;
54005;SDS011;39919;38.160;-122.260;2023-02-04T08:35:27;8.00;;;3.85;;
54005;SDS011;39919;38.160;-122.260;2023-02-04T08:37:58;8.18;;;4.13;;
54005;SDS011;39919;38.160;-122.260;2023-02-04T08:40:27;5.63;;;3.80;;
54005;SDS011;39919;38.160;-122.260;2023-02-04T08:42:57;4.20;;;2.92;;
54005;SDS011;39919;38.160;-122.260;2023-02-04T08:45:26;4.47;;;2.78;;
54005;SDS011;39919;38.160;-122.260;2023-02-04T08:47:55;5.55;;;4.28;;
54005;SDS011;39919;38.160;-122.260;2023-02-04T08:50:24;5.70;;;4.30;;
54005;SDS011;39919;38.160;-122.260;2023-02-04T08:52:55;4.05;;;3.65;;
54005;SDS011;39919;38.160;-122.260;2023-02-04T08:55:26;4.80;;;3.40;;
54005;SDS011;39919;38.160;-122.260;2023-02-04T08:57:55;4.05;;;3.42;;
54005;SDS011;39919;38.160;-122.260;2023-02-04T09:00:26;5.78;;;3.33;;
54005;SDS011;39919;38.160;-122.260;2023-02-04T09:02:55;5.05;;;3.25;;
54005;SDS011;39919;38.160;-122.260;2023-02-04T09:05:27;6.13;;;4.88;;
54005;SDS011;39919;38.160;-122.260;2023-02-04T09:07:59;5.20;;;4.53;;
54005;SDS011;39919;38.160;-122.260;2023-02-04T09:10:28;4.40;;;3.33;;
54005;SDS011;39919;38.160;-122.260;2023-02-04T09:12:58;1.92;;;1.15;;
54005;SDS011;39919;38.160;-122.260;2023-02-04T09:15:27;1.65;;;0.80;;
54005;SDS011;39919;38.160;-122.260;2023-02-04T09:17:57;1.85;;;0.60;;
54005;SDS011;39919;38.160;-122.260;2023-02-04T09:20:36;5.07;;;0.75;;
54005;SDS011;39919;38.160;-122.260;2023-02-04T09:23:07;1.52;;;0.88;;
54005;SDS011;39919;38.160;-122.260;2023-02-04T09:25:37;1.45;;;0.75;;
54005;SDS011;39919;38.160;-122.260;2023-02-04T09:28:06;0.90;;;0.50;;
54005;SDS011;39919;38.160;-122.260;2023-02-04T09:30:36;3.13;;;1.10;;
54005;SDS011;39919;38.160;-122.260;2023-02-04T09:33:06;2.00;;;1.00;;
54005;SDS011;39919;38.160;-122.260;2023-02-04T09:35:37;1.83;;;0.90;;
54005;SDS011;39919;38.160;-122.260;2023-02-04T09:38:08;5.97;;;0.90;;
54005;SDS011;39919;38.160;-122.260;2023-02-04T09:40:40;3.28;;;1.15;;
54005;SDS011;39919;38.160;-122.260;2023-02-04T09:43:12;1.88;;;1.15;;
54005;SDS011;39919;38.160;-122.260;2023-02-04T09:45:44;1.85;;;1.30;;
54005;SDS011;39919;38.160;-122.260;2023-02-04T09:48:15;5.40;;;1.73;;
54005;SDS011;39919;38.160;-122.260;2023-02-04T09:50:45;1.63;;;1.13;;
54005;SDS011;39919;38.160;-122.260;2023-02-04T09:53:18;2.50;;;1.00;;
54005;SDS011;39919;38.160;-122.260;2023-02-04T09:55:50;5.03;;;1.05;;
54005;SDS011;39919;38.160;-122.260;2023-02-04T09:58:20;2.65;;;1.50;;
54005;SDS011;39919;38.160;-122.260;2023-02-04T10:00:51;2.63;;;0.75;;
54005;SDS011;39919;38.160;-122.260;2023-02-04T10:03:25;1.58;;;0.93;;
54005;SDS011;39919;38.160;-122.260;2023-02-04T10:05:54;0.98;;;0.60;;
54005;SDS011;39919;38.160;-122.260;2023-02-04T10:08:27;3.88;;;1.05;;
54005;SDS011;39919;38.160;-122.260;2023-02-04T10:11:00;4.55;;;1.20;;
54005;SDS011;39919;38.160;-122.260;2023-02-04T10:13:30;2.88;;;0.88;;
54005;SDS011;39919;38.160;-122.260;2023-02-04T10:16:03;0.88;;;0.77;;
54005;SDS011;39919;38.160;-122.260;2023-02-04T10:18:40;2.05;;;0.95;;
54005;SDS011;39919;38.160;-122.260;2023-02-04T10:21:16;3.42;;;0.85;;
54005;SDS011;39919;38.160;-122.260;2023-02-04T10:23:52;3.93;;;2.03;;
54005;SDS011;39919;38.160;-122.260;2023-02-04T10:26:25;1.17;;;1.00;;
54005;SDS011;39919;38.160;-122.260;2023-02-04T10:28:58;2.63;;;1.13;;
54005;SDS011;39919;38.160;-122.260;2023-02-04T10:31:29;4.38;;;1.48;;
54005;SDS011;39919;38.160;-122.260;2023-02-04T10:34:09;2.22;;;1.13;;
54005;SDS011;39919;38.160;-122.260;2023-02-04T10:36:40;2.97;;;1.10;;
54005;SDS011;39919;38.160;-122.260;2023-02-04T10:39:14;2.90;;;1.55;;
54005;SDS011;39919;38.160;-122.260;2023-02-04T10:41:45;2.70;;;1.20;;
54005;SDS011;39919;38.160;-122.260;2023-02-04T10:44:16;2.17;;;1.15;;
54005;SDS011;39919;38.160;-122.260;2023-02-04T10:46:47;2.22;;;1.08;;
54005;SDS011;39919;38.160;-122.260;2023-02-04T10:49:18;3.63;;;1.10;;
54005;SDS011;39919;38.160;-122.260;2023-02-04T10:51:49;2.63;;;0.95;;
54005;SDS011;39919;38.160;-122.260;2023-02-04T10:54:23;3.58;;;0.90;;
54005;SDS011;39919;38.160;-122.260;2023-02-04T10:57:03;5.43;;;0.90;;
54005;SDS011;39919;38.160;-122.260;2023-02-04T10:59:38;1.67;;;1.10;;
54005;SDS011;39919;38.160;-122.260;2023-02-04T11:02:25;1.13;;;0.80;;
54005;SDS011;39919;38.160;-122.260;2023-02-04T11:05:12;1.80;;;0.70;;
54005;SDS011;39919;38.160;-122.260;2023-02-04T11:07:43;3.67;;;1.10;;
54005;SDS011;39919;38.160;-122.260;2023-02-04T11:10:16;3.00;;;0.80;;
54005;SDS011;39919;38.160;-122.260;2023-02-04T11:12:58;4.53;;;0.70;;
54005;SDS011;39919;38.160;-122.260;2023-02-04T11:15:46;4.40;;;1.35;;
54005;SDS011;39919;38.160;-122.260;2023-02-04T11:18:26;5.63;;;1.00;;
54005;SDS011;39919;38.160;-122.260;2023-02-04T11:20:59;2.80;;;0.82;;
54005;SDS011;39919;38.160;-122.260;2023-02-04T11:23:29;1.67;;;0.93;;
54005;SDS011;39919;38.160;-122.260;2023-02-04T11:26:06;2.88;;;1.13;;
54005;SDS011;39919;38.160;-122.260;2023-02-04T11:28:43;2.42;;;1.23;;
54005;SDS011;39919;38.160;-122.260;2023-02-04T11:31:25;4.32;;;1.10;;
54005;SDS011;39919;38.160;-122.260;2023-02-04T11:34:09;2.72;;;0.80;;
54005;SDS011;39919;38.160;-122.260;2023-02-04T11:36:54;2.97;;;1.30;;
54005;SDS011;39919;38.160;-122.260;2023-02-04T11:39:40;1.27;;;0.80;;
54005;SDS011;39919;38.160;-122.260;2023-02-04T11:42:23;2.35;;;0.63;;
54005;SDS011;39919;38.160;-122.260;2023-02-04T11:44:57;1.88;;;0.80;;
54005;SDS011;39919;38.160;-122.260;2023-02-04T11:47:33;2.08;;;0.65;;
54005;SDS011;39919;38.160;-122.260;2023-02-04T11:50:03;1.80;;;1.05;;
54005;SDS011;39919;38.160;-122.260;2023-02-04T11:52:38;4.68;;;0.73;;
54005;SDS011;39919;38.160;-122.260;2023-02-04T11:55:09;1.23;;;0.70;;
54005;SDS011;39919;38.160;-122.260;2023-02-04T11:57:41;1.33;;;0.75;;
54005;SDS011;39919;38.160;-122.260;2023-02-04T12:00:14;1.20;;;0.57;;
54005;SDS011;39919;38.160;-122.260;2023-02-04T12:02:46;1.23;;;0.98;;
54005;SDS011;39919;38.160;-122.260;2023-02-04T12:05:17;0.93;;;0.70;;
54005;SDS011;39919;38.160;-122.260;2023-02-04T12:07:47;2.63;;;1.17;;
54005;SDS011;39919;38.160;-122.260;2023-02-04T12:10:22;2.45;;;1.10;;
54005;SDS011;39919;38.160;-122.260;2023-02-04T12:12:55;7.60;;;1.10;;
54005;SDS011;39919;38.160;-122.260;2023-02-04T12:15:29;2.78;;;1.55;;
54005;SDS011;39919;38.160;-122.260;2023-02-04T12:18:00;2.55;;;0.52;;
54005;SDS011;39919;38.160;-122.260;2023-02-04T12:20:32;3.17;;;1.70;;
54005;SDS011;39919;38.160;-122.260;2023-02-04T12:23:01;2.30;;;2.08;;
54005;SDS011;39919;38.160;-122.260;2023-02-04T12:25:30;5.20;;;2.85;;
54005;SDS011;39919;38.160;-122.260;2023-02-04T12:28:02;6.68;;;2.72;;
54005;SDS011;39919;38.160;-122.260;2023-02-04T12:30:31;3.97;;;2.45;;
54005;SDS011;39919;38.160;-122.260;2023-02-04T12:33:00;6.72;;;3.25;;
54005;SDS011;39919;38.160;-122.260;2023-02-04T12:35:32;3.03;;;2.70;;
54005;SDS011;39919;38.160;-122.260;2023-02-04T12:38:01;3.53;;;2.72;;
54005;SDS011;39919;38.160;-122.260;2023-02-04T12:40:47;4.32;;;2.58;;
54005;SDS011;39919;38.160;-122.260;2023-02-04T12:43:19;5.57;;;3.38;;
54005;SDS011;39919;38.160;-122.260;2023-02-04T12:45:49;6.10;;;3.35;;
54005;SDS011;39919;38.160;-122.260;2023-02-04T12:48:19;4.63;;;2.95;;
54005;SDS011;39919;38.160;-122.260;2023-02-04T12:50:50;6.45;;;3.20;;
54005;SDS011;39919;38.160;-122.260;2023-02-04T12:53:20;6.22;;;5.63;;
54005;SDS011;39919;38.160;-122.260;2023-02-04T12:55:50;9.13;;;5.35;;
54005;SDS011;39919;38.160;-122.260;2023-02-04T12:58:21;9.30;;;5.80;;
54005;SDS011;39919;38.160;-122.260;2023-02-04T13:00:50;7.03;;;5.00;;
54005;SDS011;39919;38.160;-122.260;2023-02-04T13:03:20;11.88;;;5.28;;
54005;SDS011;39919;38.160;-122.260;2023-02-04T13:05:50;7.25;;;3.83;;
54005;SDS011;39919;38.160;-122.260;2023-02-04T13:08:19;8.82;;;5.05;;
54005;SDS011;39919;38.160;-122.260;2023-02-04T13:10:49;4.47;;;3.38;;
54005;SDS011;39919;38.160;-122.260;2023-02-04T13:13:19;3.97;;;3.53;;
54005;SDS011;39919;38.160;-122.260;2023-02-04T13:15:50;7.03;;;3.40;;
54005;SDS011;39919;38.160;-122.260;2023-02-04T13:18:20;5.50;;;3.58;;
54005;SDS011;39919;38.160;-122.260;2023-02-04T13:20:49;6.93;;;3.42;;
54005;SDS011;39919;38.160;-122.260;2023-02-04T13:23:19;4.70;;;2.45;;
54005;SDS011;39919;38.160;-122.260;2023-02-04T13:25:48;4.55;;;3.30;;
54005;SDS011;39919;38.160;-122.260;2023-02-04T13:28:18;4.07;;;3.47;;
54005;SDS011;39919;38.160;-122.260;2023-02-04T13:30:52;2.40;;;2.20;;
54005;SDS011;39919;38.160;-122.260;2023-02-04T13:33:22;4.57;;;3.30;;
54005;SDS011;39919;38.160;-122.260;2023-02-04T13:35:51;3.33;;;2.75;;
54005;SDS011;39919;38.160;-122.260;2023-02-04T13:38:20;5.28;;;3.97;;
54005;SDS011;39919;38.160;-122.260;2023-02-04T13:40:50;4.35;;;3.50;;
54005;SDS011;39919;38.160;-122.260;2023-02-04T13:43:20;6.72;;;4.03;;
54005;SDS011;39919;38.160;-122.260;2023-02-04T13:45:49;4.80;;;3.22;;
54005;SDS011;39919;38.160;-122.260;2023-02-04T13:48:22;3.50;;;3.17;;
54005;SDS011;39919;38.160;-122.260;2023-02-04T13:50:51;4.88;;;4.10;;
54005;SDS011;39919;38.160;-122.260;2023-02-04T13:53:21;8.15;;;4.72;;
54005;SDS011;39919;38.160;-122.260;2023-02-04T13:55:51;5.78;;;4.03;;
54005;SDS011;39919;38.160;-122.260;2023-02-04T13:58:21;9.82;;;4.03;;
54005;SDS011;39919;38.160;-122.260;2023-02-04T14:00:50;5.57;;;3.95;;
54005;SDS011;39919;38.160;-122.260;2023-02-04T14:03:22;6.25;;;4.38;;
54005;SDS011;39919;38.160;-122.260;2023-02-04T14:08:37;9.65;;;5.28;;
54005;SDS011;39919;38.160;-122.260;2023-02-04T14:11:08;7.43;;;4.30;;
54005;SDS011;39919;38.160;-122.260;2023-02-04T14:13:37;5.10;;;4.13;;
54005;SDS011;39919;38.160;-122.260;2023-02-04T14:16:11;5.55;;;3.72;;
54005;SDS011;39919;38.160;-122.260;2023-02-04T14:18:40;7.93;;;4.53;;
54005;SDS011;39919;38.160;-122.260;2023-02-04T14:21:09;10.90;;;4.53;;
54005;SDS011;39919;38.160;-122.260;2023-02-04T14:23:39;6.88;;;4.55;;
54005;SDS011;39919;38.160;-122.260;2023-02-04T14:26:11;7.63;;;4.32;;
54005;SDS011;39919;38.160;-122.260;2023-02-04T14:28:40;8.82;;;4.38;;
54005;SDS011;39919;38.160;-122.260;2023-02-04T14:31:12;5.57;;;3.50;;
54005;SDS011;39919;38.160;-122.260;2023-02-04T14:33:41;5.32;;;3.90;;